sensor_id;sensor_type;location;lat;lon;timestamp;temperature;humidity
39103;DHT22;24847;48.218;16.414;2024-03-08T00:00:40;3.70;80.90
39103;DHT22;24847;48.218;16.414;2024-03-08T00:05:43;3.80;81.50
39103;DHT22;24847;48.218;16.414;2024-03-08T00:10:45;3.60;82.50
39103;DHT22;24847;48.218;16.414;2024-03-08T00:15:49;3.50;83.20
39103;DHT22;24847;48.218;16.414;2024-03-08T00:20:51;3.60;83.20
39103;DHT22;24847;48.218;16.414;2024-03-08T00:25:54;3.60;83.40
39103;DHT22;24847;48.218;16.414;2024-03-08T00:30:57;3.70;83.10
39103;DHT22;24847;48.218;16.414;2024-03-08T00:36:00;3.70;83.30
39103;DHT22;24847;48.218;16.414;2024-03-08T00:41:02;3.50;83.40
39103;DHT22;24847;48.218;16.414;2024-03-08T00:46:06;3.60;82.90
39103;DHT22;24847;48.218;16.414;2024-03-08T00:51:08;3.50;83.40
39103;DHT22;24847;48.218;16.414;2024-03-08T00:56:10;3.60;83.80
39103;DHT22;24847;48.218;16.414;2024-03-08T01:01:14;3.80;82.80
39103;DHT22;24847;48.218;16.414;2024-03-08T01:06:17;3.70;83.00
39103;DHT22;24847;48.218;16.414;2024-03-08T01:11:20;3.40;84.40
39103;DHT22;24847;48.218;16.414;2024-03-08T01:16:23;3.50;85.10
39103;DHT22;24847;48.218;16.414;2024-03-08T01:21:25;3.40;85.40
39103;DHT22;24847;48.218;16.414;2024-03-08T01:26:28;3.50;86.40
39103;DHT22;24847;48.218;16.414;2024-03-08T01:31:31;3.40;85.40
39103;DHT22;24847;48.218;16.414;2024-03-08T01:36:34;3.20;86.50
39103;DHT22;24847;48.218;16.414;2024-03-08T01:41:38;3.30;86.70
39103;DHT22;24847;48.218;16.414;2024-03-08T01:46:42;3.30;87.00
39103;DHT22;24847;48.218;16.414;2024-03-08T01:51:45;3.60;86.20
39103;DHT22;24847;48.218;16.414;2024-03-08T01:56:48;3.50;87.30
39103;DHT22;24847;48.218;16.414;2024-03-08T02:01:51;3.60;87.00
39103;DHT22;24847;48.218;16.414;2024-03-08T02:06:55;3.20;87.10
39103;DHT22;24847;48.218;16.414;2024-03-08T02:11:58;3.20;88.60
39103;DHT22;24847;48.218;16.414;2024-03-08T02:17:02;3.20;88.00
39103;DHT22;24847;48.218;16.414;2024-03-08T02:22:07;3.20;88.60
39103;DHT22;24847;48.218;16.414;2024-03-08T02:27:09;3.10;89.40
39103;DHT22;24847;48.218;16.414;2024-03-08T02:32:12;3.00;89.80
39103;DHT22;24847;48.218;16.414;2024-03-08T02:37:16;2.90;89.50
39103;DHT22;24847;48.218;16.414;2024-03-08T02:42:18;3.00;89.80
39103;DHT22;24847;48.218;16.414;2024-03-08T02:47:20;3.00;89.50
39103;DHT22;24847;48.218;16.414;2024-03-08T02:52:24;2.90;89.20
39103;DHT22;24847;48.218;16.414;2024-03-08T02:57:26;3.00;89.30
39103;DHT22;24847;48.218;16.414;2024-03-08T03:02:28;3.00;89.60
39103;DHT22;24847;48.218;16.414;2024-03-08T03:07:32;2.90;89.60
39103;DHT22;24847;48.218;16.414;2024-03-08T03:12:34;3.00;88.80
39103;DHT22;24847;48.218;16.414;2024-03-08T03:17:37;2.90;89.50
39103;DHT22;24847;48.218;16.414;2024-03-08T03:22:41;2.90;89.40
39103;DHT22;24847;48.218;16.414;2024-03-08T03:27:48;2.90;90.00
39103;DHT22;24847;48.218;16.414;2024-03-08T03:32:50;3.00;89.40
39103;DHT22;24847;48.218;16.414;2024-03-08T03:37:54;3.20;88.40
39103;DHT22;24847;48.218;16.414;2024-03-08T03:43:06;3.10;88.20
39103;DHT22;24847;48.218;16.414;2024-03-08T03:48:10;3.10;89.20
39103;DHT22;24847;48.218;16.414;2024-03-08T03:53:14;3.10;88.80
39103;DHT22;24847;48.218;16.414;2024-03-08T03:58:16;3.50;87.30
39103;DHT22;24847;48.218;16.414;2024-03-08T04:03:23;3.20;88.20
39103;DHT22;24847;48.218;16.414;2024-03-08T04:08:26;3.20;89.60
39103;DHT22;24847;48.218;16.414;2024-03-08T04:13:28;3.30;88.60
39103;DHT22;24847;48.218;16.414;2024-03-08T04:18:30;3.40;87.50
39103;DHT22;24847;48.218;16.414;2024-03-08T04:23:34;3.30;88.20
39103;DHT22;24847;48.218;16.414;2024-03-08T04:28:37;3.30;87.80
39103;DHT22;24847;48.218;16.414;2024-03-08T04:33:39;3.40;87.70
39103;DHT22;24847;48.218;16.414;2024-03-08T04:38:43;3.10;88.40
39103;DHT22;24847;48.218;16.414;2024-03-08T04:43:46;3.10;87.70
39103;DHT22;24847;48.218;16.414;2024-03-08T04:48:48;3.00;88.10
39103;DHT22;24847;48.218;16.414;2024-03-08T04:53:52;3.00;88.80
39103;DHT22;24847;48.218;16.414;2024-03-08T04:58:54;3.00;88.70
39103;DHT22;24847;48.218;16.414;2024-03-08T05:03:56;3.00;88.80
39103;DHT22;24847;48.218;16.414;2024-03-08T05:09:00;3.20;88.20
39103;DHT22;24847;48.218;16.414;2024-03-08T05:14:07;3.30;87.00
39103;DHT22;24847;48.218;16.414;2024-03-08T05:19:09;3.00;88.20
39103;DHT22;24847;48.218;16.414;2024-03-08T05:24:13;3.10;87.70
39103;DHT22;24847;48.218;16.414;2024-03-08T05:29:15;3.10;89.00
39103;DHT22;24847;48.218;16.414;2024-03-08T05:34:17;3.20;88.40
39103;DHT22;24847;48.218;16.414;2024-03-08T05:39:22;3.10;88.10
39103;DHT22;24847;48.218;16.414;2024-03-08T05:44:24;3.30;88.20
39103;DHT22;24847;48.218;16.414;2024-03-08T05:49:29;3.20;89.70
39103;DHT22;24847;48.218;16.414;2024-03-08T05:54:32;3.10;88.80
39103;DHT22;24847;48.218;16.414;2024-03-08T05:59:34;3.30;88.50
39103;DHT22;24847;48.218;16.414;2024-03-08T06:04:36;3.30;88.90
39103;DHT22;24847;48.218;16.414;2024-03-08T06:09:41;3.20;88.80
39103;DHT22;24847;48.218;16.414;2024-03-08T06:14:45;3.40;88.10
39103;DHT22;24847;48.218;16.414;2024-03-08T06:19:48;3.30;88.00
39103;DHT22;24847;48.218;16.414;2024-03-08T06:24:52;3.40;87.90
39103;DHT22;24847;48.218;16.414;2024-03-08T06:29:54;3.40;88.60
39103;DHT22;24847;48.218;16.414;2024-03-08T06:34:57;3.40;87.60
39103;DHT22;24847;48.218;16.414;2024-03-08T06:40:00;3.40;87.60
39103;DHT22;24847;48.218;16.414;2024-03-08T06:45:04;3.30;88.30
39103;DHT22;24847;48.218;16.414;2024-03-08T06:50:07;3.40;88.00
39103;DHT22;24847;48.218;16.414;2024-03-08T06:55:13;3.50;87.70
39103;DHT22;24847;48.218;16.414;2024-03-08T07:00:16;3.50;87.30
39103;DHT22;24847;48.218;16.414;2024-03-08T07:05:21;3.40;87.60
39103;DHT22;24847;48.218;16.414;2024-03-08T07:10:26;3.60;87.00
39103;DHT22;24847;48.218;16.414;2024-03-08T07:15:29;3.50;87.40
39103;DHT22;24847;48.218;16.414;2024-03-08T07:20:31;3.60;87.70
39103;DHT22;24847;48.218;16.414;2024-03-08T07:25:35;3.70;87.40
39103;DHT22;24847;48.218;16.414;2024-03-08T07:30:39;3.80;87.30
39103;DHT22;24847;48.218;16.414;2024-03-08T07:36:02;3.80;86.80
39103;DHT22;24847;48.218;16.414;2024-03-08T07:41:06;3.80;87.50
39103;DHT22;24847;48.218;16.414;2024-03-08T07:46:09;3.80;86.90
39103;DHT22;24847;48.218;16.414;2024-03-08T07:51:12;3.90;86.80
39103;DHT22;24847;48.218;16.414;2024-03-08T07:56:15;3.80;87.20
39103;DHT22;24847;48.218;16.414;2024-03-08T08:01:19;3.70;87.40
39103;DHT22;24847;48.218;16.414;2024-03-08T08:06:21;3.80;87.20
39103;DHT22;24847;48.218;16.414;2024-03-08T08:11:27;3.90;86.80
39103;DHT22;24847;48.218;16.414;2024-03-08T08:16:29;3.90;86.80
39103;DHT22;24847;48.218;16.414;2024-03-08T08:21:32;3.80;87.40
39103;DHT22;24847;48.218;16.414;2024-03-08T08:26:36;3.60;88.50
39103;DHT22;24847;48.218;16.414;2024-03-08T08:31:39;3.80;88.60
39103;DHT22;24847;48.218;16.414;2024-03-08T08:36:41;3.70;88.40
39103;DHT22;24847;48.218;16.414;2024-03-08T08:41:44;3.60;88.80
39103;DHT22;24847;48.218;16.414;2024-03-08T08:46:48;3.50;89.00
39103;DHT22;24847;48.218;16.414;2024-03-08T08:51:50;3.60;89.50
39103;DHT22;24847;48.218;16.414;2024-03-08T08:56:54;3.60;89.30
39103;DHT22;24847;48.218;16.414;2024-03-08T09:01:56;3.70;89.20
39103;DHT22;24847;48.218;16.414;2024-03-08T09:06:58;3.80;89.00
39103;DHT22;24847;48.218;16.414;2024-03-08T09:12:03;4.00;87.90
39103;DHT22;24847;48.218;16.414;2024-03-08T09:17:06;4.10;86.90
39103;DHT22;24847;48.218;16.414;2024-03-08T09:22:09;4.20;86.90
39103;DHT22;24847;48.218;16.414;2024-03-08T09:27:13;4.20;87.70
39103;DHT22;24847;48.218;16.414;2024-03-08T09:32:15;4.20;87.10
39103;DHT22;24847;48.218;16.414;2024-03-08T09:37:17;4.10;87.90
39103;DHT22;24847;48.218;16.414;2024-03-08T09:42:21;4.30;85.70
39103;DHT22;24847;48.218;16.414;2024-03-08T09:47:25;4.20;86.50
39103;DHT22;24847;48.218;16.414;2024-03-08T09:52:30;4.40;86.70
39103;DHT22;24847;48.218;16.414;2024-03-08T09:57:36;4.50;86.00
39103;DHT22;24847;48.218;16.414;2024-03-08T10:02:39;4.70;85.80
39103;DHT22;24847;48.218;16.414;2024-03-08T10:07:41;4.70;85.00
39103;DHT22;24847;48.218;16.414;2024-03-08T10:12:44;4.80;84.70
39103;DHT22;24847;48.218;16.414;2024-03-08T10:17:47;5.00;85.20
39103;DHT22;24847;48.218;16.414;2024-03-08T10:22:50;5.00;85.60
39103;DHT22;24847;48.218;16.414;2024-03-08T10:27:53;4.80;86.50
39103;DHT22;24847;48.218;16.414;2024-03-08T10:32:56;4.80;86.60
39103;DHT22;24847;48.218;16.414;2024-03-08T10:37:59;4.60;88.20
39103;DHT22;24847;48.218;16.414;2024-03-08T10:43:12;5.00;85.90
39103;DHT22;24847;48.218;16.414;2024-03-08T10:48:27;5.00;85.60
39103;DHT22;24847;48.218;16.414;2024-03-08T10:53:34;5.10;85.10
39103;DHT22;24847;48.218;16.414;2024-03-08T10:58:39;5.10;84.60
39103;DHT22;24847;48.218;16.414;2024-03-08T11:03:45;5.30;84.40
39103;DHT22;24847;48.218;16.414;2024-03-08T11:08:49;5.40;83.80
39103;DHT22;24847;48.218;16.414;2024-03-08T11:13:53;5.80;83.10
39103;DHT22;24847;48.218;16.414;2024-03-08T11:18:59;5.60;84.00
39103;DHT22;24847;48.218;16.414;2024-03-08T11:24:08;5.60;85.00
39103;DHT22;24847;48.218;16.414;2024-03-08T11:29:34;5.80;83.40
39103;DHT22;24847;48.218;16.414;2024-03-08T11:34:41;5.70;83.90
39103;DHT22;24847;48.218;16.414;2024-03-08T11:39:48;5.90;84.20
39103;DHT22;24847;48.218;16.414;2024-03-08T11:44:53;5.60;83.80
39103;DHT22;24847;48.218;16.414;2024-03-08T11:49:55;5.80;83.50
39103;DHT22;24847;48.218;16.414;2024-03-08T11:54:58;5.80;82.50
39103;DHT22;24847;48.218;16.414;2024-03-08T12:00:01;5.60;82.50
39103;DHT22;24847;48.218;16.414;2024-03-08T12:05:07;5.80;82.60
39103;DHT22;24847;48.218;16.414;2024-03-08T12:10:18;5.70;81.80
39103;DHT22;24847;48.218;16.414;2024-03-08T12:15:23;5.60;82.70
39103;DHT22;24847;48.218;16.414;2024-03-08T12:20:27;5.60;82.30
39103;DHT22;24847;48.218;16.414;2024-03-08T12:25:32;5.70;81.40
39103;DHT22;24847;48.218;16.414;2024-03-08T12:30:45;5.70;80.60
39103;DHT22;24847;48.218;16.414;2024-03-08T12:35:53;5.80;80.90
39103;DHT22;24847;48.218;16.414;2024-03-08T12:40:57;6.00;80.70
39103;DHT22;24847;48.218;16.414;2024-03-08T12:46:01;6.00;80.60
39103;DHT22;24847;48.218;16.414;2024-03-08T12:51:06;6.00;79.60
39103;DHT22;24847;48.218;16.414;2024-03-08T12:56:09;5.70;78.80
39103;DHT22;24847;48.218;16.414;2024-03-08T13:01:13;5.80;78.70
39103;DHT22;24847;48.218;16.414;2024-03-08T13:06:16;5.80;78.30
39103;DHT22;24847;48.218;16.414;2024-03-08T13:11:18;5.70;78.90
39103;DHT22;24847;48.218;16.414;2024-03-08T13:16:22;5.70;79.50
39103;DHT22;24847;48.218;16.414;2024-03-08T13:21:24;5.60;78.40
39103;DHT22;24847;48.218;16.414;2024-03-08T13:26:26;5.80;78.80
39103;DHT22;24847;48.218;16.414;2024-03-08T13:31:34;5.80;77.70
39103;DHT22;24847;48.218;16.414;2024-03-08T13:36:37;5.80;77.90
39103;DHT22;24847;48.218;16.414;2024-03-08T13:41:44;5.80;77.50
39103;DHT22;24847;48.218;16.414;2024-03-08T13:46:48;6.10;77.90
39103;DHT22;24847;48.218;16.414;2024-03-08T13:51:51;6.30;76.50
39103;DHT22;24847;48.218;16.414;2024-03-08T13:56:55;6.20;76.80
39103;DHT22;24847;48.218;16.414;2024-03-08T14:01:59;6.00;77.10
39103;DHT22;24847;48.218;16.414;2024-03-08T14:07:03;6.10;77.20
39103;DHT22;24847;48.218;16.414;2024-03-08T14:12:06;6.30;76.50
39103;DHT22;24847;48.218;16.414;2024-03-08T14:17:10;6.20;76.80
39103;DHT22;24847;48.218;16.414;2024-03-08T14:22:17;6.30;76.60
39103;DHT22;24847;48.218;16.414;2024-03-08T14:27:20;6.20;76.80
39103;DHT22;24847;48.218;16.414;2024-03-08T14:32:24;6.40;75.80
39103;DHT22;24847;48.218;16.414;2024-03-08T14:37:27;6.20;76.10
39103;DHT22;24847;48.218;16.414;2024-03-08T14:42:30;6.30;75.20
39103;DHT22;24847;48.218;16.414;2024-03-08T14:47:33;6.20;76.30
39103;DHT22;24847;48.218;16.414;2024-03-08T14:52:36;6.20;76.60
39103;DHT22;24847;48.218;16.414;2024-03-08T14:57:40;6.20;76.20
39103;DHT22;24847;48.218;16.414;2024-03-08T15:02:44;6.30;76.50
39103;DHT22;24847;48.218;16.414;2024-03-08T15:07:47;6.30;76.00
39103;DHT22;24847;48.218;16.414;2024-03-08T15:12:50;6.30;75.90
39103;DHT22;24847;48.218;16.414;2024-03-08T15:17:57;6.40;75.40
39103;DHT22;24847;48.218;16.414;2024-03-08T15:22:59;6.50;74.30
39103;DHT22;24847;48.218;16.414;2024-03-08T15:28:01;6.50;73.70
39103;DHT22;24847;48.218;16.414;2024-03-08T15:33:06;6.50;73.20
39103;DHT22;24847;48.218;16.414;2024-03-08T15:38:11;6.40;72.90
39103;DHT22;24847;48.218;16.414;2024-03-08T15:43:14;6.40;73.40
39103;DHT22;24847;48.218;16.414;2024-03-08T15:48:18;6.20;75.20
39103;DHT22;24847;48.218;16.414;2024-03-08T15:53:22;6.30;74.60
39103;DHT22;24847;48.218;16.414;2024-03-08T15:58:25;6.10;75.30
39103;DHT22;24847;48.218;16.414;2024-03-08T16:03:28;6.00;75.40
39103;DHT22;24847;48.218;16.414;2024-03-08T16:08:31;6.10;76.00
39103;DHT22;24847;48.218;16.414;2024-03-08T16:13:37;5.90;76.30
39103;DHT22;24847;48.218;16.414;2024-03-08T16:18:41;5.80;76.50
39103;DHT22;24847;48.218;16.414;2024-03-08T16:23:43;5.80;76.80
39103;DHT22;24847;48.218;16.414;2024-03-08T16:28:47;5.90;77.30
39103;DHT22;24847;48.218;16.414;2024-03-08T16:33:50;5.80;78.00
39103;DHT22;24847;48.218;16.414;2024-03-08T16:38:52;5.80;79.10
39103;DHT22;24847;48.218;16.414;2024-03-08T16:43:55;5.80;78.80
39103;DHT22;24847;48.218;16.414;2024-03-08T16:48:59;5.80;79.30
39103;DHT22;24847;48.218;16.414;2024-03-08T16:54:05;5.80;79.30
39103;DHT22;24847;48.218;16.414;2024-03-08T16:59:09;5.70;80.10
39103;DHT22;24847;48.218;16.414;2024-03-08T17:04:12;5.60;80.60
39103;DHT22;24847;48.218;16.414;2024-03-08T17:09:15;5.60;81.90
39103;DHT22;24847;48.218;16.414;2024-03-08T17:14:18;5.50;82.30
39103;DHT22;24847;48.218;16.414;2024-03-08T17:19:22;5.50;82.60
39103;DHT22;24847;48.218;16.414;2024-03-08T17:24:28;5.40;83.20
39103;DHT22;24847;48.218;16.414;2024-03-08T17:29:30;5.40;83.00
39103;DHT22;24847;48.218;16.414;2024-03-08T17:34:33;5.30;83.90
39103;DHT22;24847;48.218;16.414;2024-03-08T17:39:37;5.20;83.90
39103;DHT22;24847;48.218;16.414;2024-03-08T17:44:40;5.30;83.90
39103;DHT22;24847;48.218;16.414;2024-03-08T17:49:44;5.20;83.60
39103;DHT22;24847;48.218;16.414;2024-03-08T17:54:47;5.10;83.40
39103;DHT22;24847;48.218;16.414;2024-03-08T17:59:50;5.10;83.70
39103;DHT22;24847;48.218;16.414;2024-03-08T18:04:53;5.20;83.70
39103;DHT22;24847;48.218;16.414;2024-03-08T18:09:57;5.10;83.90
39103;DHT22;24847;48.218;16.414;2024-03-08T18:14:59;5.10;84.10
39103;DHT22;24847;48.218;16.414;2024-03-08T18:20:03;5.10;84.30
39103;DHT22;24847;48.218;16.414;2024-03-08T18:25:07;5.10;84.70
39103;DHT22;24847;48.218;16.414;2024-03-08T18:30:13;5.10;84.50
39103;DHT22;24847;48.218;16.414;2024-03-08T18:35:18;5.10;84.50
39103;DHT22;24847;48.218;16.414;2024-03-08T18:40:22;5.10;84.50
39103;DHT22;24847;48.218;16.414;2024-03-08T18:45:25;5.10;84.60
39103;DHT22;24847;48.218;16.414;2024-03-08T18:50:30;5.10;84.50
39103;DHT22;24847;48.218;16.414;2024-03-08T18:55:32;5.10;84.40
39103;DHT22;24847;48.218;16.414;2024-03-08T19:00:35;5.10;84.40
39103;DHT22;24847;48.218;16.414;2024-03-08T19:05:40;5.10;84.40
39103;DHT22;24847;48.218;16.414;2024-03-08T19:10:42;5.20;84.40
39103;DHT22;24847;48.218;16.414;2024-03-08T19:15:46;5.20;83.60
39103;DHT22;24847;48.218;16.414;2024-03-08T19:20:53;5.30;83.60
39103;DHT22;24847;48.218;16.414;2024-03-08T19:25:57;5.40;83.50
39103;DHT22;24847;48.218;16.414;2024-03-08T19:30:59;5.40;83.40
39103;DHT22;24847;48.218;16.414;2024-03-08T19:36:05;5.40;83.40
39103;DHT22;24847;48.218;16.414;2024-03-08T19:41:11;5.40;83.40
39103;DHT22;24847;48.218;16.414;2024-03-08T19:46:14;5.40;83.60
39103;DHT22;24847;48.218;16.414;2024-03-08T19:51:17;5.40;83.60
39103;DHT22;24847;48.218;16.414;2024-03-08T19:56:19;5.40;84.40
39103;DHT22;24847;48.218;16.414;2024-03-08T20:01:23;5.40;84.70
39103;DHT22;24847;48.218;16.414;2024-03-08T20:06:26;5.50;84.60
39103;DHT22;24847;48.218;16.414;2024-03-08T20:11:28;5.40;84.70
39103;DHT22;24847;48.218;16.414;2024-03-08T20:16:31;5.50;85.00
39103;DHT22;24847;48.218;16.414;2024-03-08T20:21:34;5.40;85.20
39103;DHT22;24847;48.218;16.414;2024-03-08T20:26:37;5.50;85.30
39103;DHT22;24847;48.218;16.414;2024-03-08T20:31:39;5.40;85.30
39103;DHT22;24847;48.218;16.414;2024-03-08T20:36:43;5.50;85.30
39103;DHT22;24847;48.218;16.414;2024-03-08T20:41:45;5.40;85.60
39103;DHT22;24847;48.218;16.414;2024-03-08T20:46:47;5.40;85.40
39103;DHT22;24847;48.218;16.414;2024-03-08T20:51:55;5.40;85.20
39103;DHT22;24847;48.218;16.414;2024-03-08T20:56:57;5.50;84.20
39103;DHT22;24847;48.218;16.414;2024-03-08T21:01:59;5.40;85.40
39103;DHT22;24847;48.218;16.414;2024-03-08T21:07:03;5.40;84.90
39103;DHT22;24847;48.218;16.414;2024-03-08T21:12:07;5.30;85.60
39103;DHT22;24847;48.218;16.414;2024-03-08T21:17:11;5.30;86.50
39103;DHT22;24847;48.218;16.414;2024-03-08T21:22:25;5.50;84.80
39103;DHT22;24847;48.218;16.414;2024-03-08T21:27:28;5.50;85.00
39103;DHT22;24847;48.218;16.414;2024-03-08T21:32:30;5.30;86.90
39103;DHT22;24847;48.218;16.414;2024-03-08T21:37:35;5.30;87.80
39103;DHT22;24847;48.218;16.414;2024-03-08T21:42:37;5.30;88.10
39103;DHT22;24847;48.218;16.414;2024-03-08T21:47:40;5.30;88.10
39103;DHT22;24847;48.218;16.414;2024-03-08T21:52:45;5.30;88.10
39103;DHT22;24847;48.218;16.414;2024-03-08T21:57:47;5.40;87.50
39103;DHT22;24847;48.218;16.414;2024-03-08T22:02:50;5.50;87.60
39103;DHT22;24847;48.218;16.414;2024-03-08T22:07:54;5.60;87.30
39103;DHT22;24847;48.218;16.414;2024-03-08T22:12:56;5.60;87.50
39103;DHT22;24847;48.218;16.414;2024-03-08T22:17:58;5.40;88.80
39103;DHT22;24847;48.218;16.414;2024-03-08T22:23:02;5.40;88.40
39103;DHT22;24847;48.218;16.414;2024-03-08T22:28:06;5.60;87.80
39103;DHT22;24847;48.218;16.414;2024-03-08T22:33:09;5.60;86.90
39103;DHT22;24847;48.218;16.414;2024-03-08T22:38:12;5.60;87.20
39103;DHT22;24847;48.218;16.414;2024-03-08T22:43:17;5.50;87.10
39103;DHT22;24847;48.218;16.414;2024-03-08T22:48:19;5.50;87.30
39103;DHT22;24847;48.218;16.414;2024-03-08T22:53:24;5.60;87.10
39103;DHT22;24847;48.218;16.414;2024-03-08T22:58:28;5.60;86.70
39103;DHT22;24847;48.218;16.414;2024-03-08T23:03:30;5.40;88.60
39103;DHT22;24847;48.218;16.414;2024-03-08T23:08:37;5.30;89.00
39103;DHT22;24847;48.218;16.414;2024-03-08T23:13:41;5.40;88.90
39103;DHT22;24847;48.218;16.414;2024-03-08T23:18:46;5.50;87.70
39103;DHT22;24847;48.218;16.414;2024-03-08T23:23:53;5.50;87.20
39103;DHT22;24847;48.218;16.414;2024-03-08T23:28:55;5.60;87.20
39103;DHT22;24847;48.218;16.414;2024-03-08T23:33:59;5.30;88.00
39103;DHT22;24847;48.218;16.414;2024-03-08T23:39:03;5.40;88.20
39103;DHT22;24847;48.218;16.414;2024-03-08T23:44:09;5.40;87.50
39103;DHT22;24847;48.218;16.414;2024-03-08T23:49:12;5.50;87.10
39103;DHT22;24847;48.218;16.414;2024-03-08T23:54:19;5.40;87.80
39103;DHT22;24847;48.218;16.414;2024-03-08T23:59:23;5.50;87.60
